sensor_id;sensor_type;location;lat;lon;timestamp;P1;durP1;ratioP1;P2;durP2;ratioP2
82992;SDS011;72811;50.844;3.228;2023-10-09T00:00:10;14.45;;;7.43;;
82992;SDS011;72811;50.844;3.228;2023-10-09T00:02:55;16.02;;;8.02;;
82992;SDS011;72811;50.844;3.228;2023-10-09T00:05:20;15.35;;;7.47;;
82992;SDS011;72811;50.844;3.228;2023-10-09T00:08:03;14.40;;;8.30;;
82992;SDS011;72811;50.844;3.228;2023-10-09T00:10:29;15.80;;;7.15;;
82992;SDS011;72811;50.844;3.228;2023-10-09T00:15:35;15.02;;;6.95;;
82992;SDS011;72811;50.844;3.228;2023-10-09T00:18:01;12.10;;;7.60;;
82992;SDS011;72811;50.844;3.228;2023-10-09T00:20:39;13.20;;;7.05;;
82992;SDS011;72811;50.844;3.228;2023-10-09T00:23:08;15.38;;;7.38;;
82992;SDS011;72811;50.844;3.228;2023-10-09T00:25:48;16.85;;;7.75;;
82992;SDS011;72811;50.844;3.228;2023-10-09T00:28:30;12.70;;;7.68;;
82992;SDS011;72811;50.844;3.228;2023-10-09T00:30:56;12.18;;;7.60;;
82992;SDS011;72811;50.844;3.228;2023-10-09T00:33:22;12.40;;;6.97;;
82992;SDS011;72811;50.844;3.228;2023-10-09T00:35:48;13.40;;;7.88;;
82992;SDS011;72811;50.844;3.228;2023-10-09T00:38:19;14.25;;;7.68;;
82992;SDS011;72811;50.844;3.228;2023-10-09T00:40:47;13.75;;;8.02;;
82992;SDS011;72811;50.844;3.228;2023-10-09T00:43:21;12.95;;;7.70;;
82992;SDS011;72811;50.844;3.228;2023-10-09T00:45:54;13.70;;;7.63;;
82992;SDS011;72811;50.844;3.228;2023-10-09T00:48:25;14.02;;;8.18;;
82992;SDS011;72811;50.844;3.228;2023-10-09T00:51:03;13.40;;;8.23;;
82992;SDS011;72811;50.844;3.228;2023-10-09T00:53:45;14.30;;;7.88;;
82992;SDS011;72811;50.844;3.228;2023-10-09T00:56:20;14.30;;;8.02;;
82992;SDS011;72811;50.844;3.228;2023-10-09T01:01:46;12.32;;;8.18;;
82992;SDS011;72811;50.844;3.228;2023-10-09T01:04:29;16.35;;;9.13;;
82992;SDS011;72811;50.844;3.228;2023-10-09T01:07:05;14.70;;;8.57;;
82992;SDS011;72811;50.844;3.228;2023-10-09T01:09:40;16.13;;;9.27;;
82992;SDS011;72811;50.844;3.228;2023-10-09T01:12:09;17.08;;;8.77;;
82992;SDS011;72811;50.844;3.228;2023-10-09T01:14:46;16.02;;;8.63;;
82992;SDS011;72811;50.844;3.228;2023-10-09T01:17:18;15.32;;;8.65;;
82992;SDS011;72811;50.844;3.228;2023-10-09T01:19:55;16.05;;;8.95;;
82992;SDS011;72811;50.844;3.228;2023-10-09T01:22:23;16.55;;;9.63;;
82992;SDS011;72811;50.844;3.228;2023-10-09T01:24:49;14.98;;;9.15;;
82992;SDS011;72811;50.844;3.228;2023-10-09T01:27:16;13.68;;;8.43;;
82992;SDS011;72811;50.844;3.228;2023-10-09T01:29:42;14.98;;;8.50;;
82992;SDS011;72811;50.844;3.228;2023-10-09T01:32:09;14.30;;;8.75;;
82992;SDS011;72811;50.844;3.228;2023-10-09T01:34:41;15.88;;;8.68;;
82992;SDS011;72811;50.844;3.228;2023-10-09T01:37:09;15.13;;;9.02;;
82992;SDS011;72811;50.844;3.228;2023-10-09T01:39:42;15.77;;;8.38;;
82992;SDS011;72811;50.844;3.228;2023-10-09T01:42:10;15.48;;;9.00;;
82992;SDS011;72811;50.844;3.228;2023-10-09T01:44:36;15.68;;;8.85;;
82992;SDS011;72811;50.844;3.228;2023-10-09T01:47:08;16.15;;;8.85;;
82992;SDS011;72811;50.844;3.228;2023-10-09T01:49:39;15.10;;;8.90;;
82992;SDS011;72811;50.844;3.228;2023-10-09T01:52:08;15.43;;;9.10;;
82992;SDS011;72811;50.844;3.228;2023-10-09T01:54:40;17.92;;;9.75;;
82992;SDS011;72811;50.844;3.228;2023-10-09T01:57:08;15.88;;;8.95;;
82992;SDS011;72811;50.844;3.228;2023-10-09T01:59:40;17.52;;;9.40;;
82992;SDS011;72811;50.844;3.228;2023-10-09T02:02:10;17.08;;;9.48;;
82992;SDS011;72811;50.844;3.228;2023-10-09T02:04:52;18.77;;;9.35;;
82992;SDS011;72811;50.844;3.228;2023-10-09T02:07:19;15.25;;;9.05;;
82992;SDS011;72811;50.844;3.228;2023-10-09T02:09:52;17.33;;;9.25;;
82992;SDS011;72811;50.844;3.228;2023-10-09T02:12:21;18.63;;;10.07;;
82992;SDS011;72811;50.844;3.228;2023-10-09T02:14:49;15.32;;;9.50;;
82992;SDS011;72811;50.844;3.228;2023-10-09T02:17:19;12.85;;;8.95;;
82992;SDS011;72811;50.844;3.228;2023-10-09T02:19:54;16.67;;;9.63;;
82992;SDS011;72811;50.844;3.228;2023-10-09T02:22:20;17.70;;;10.48;;
82992;SDS011;72811;50.844;3.228;2023-10-09T02:24:51;16.58;;;9.90;;
82992;SDS011;72811;50.844;3.228;2023-10-09T02:27:23;14.32;;;9.45;;
82992;SDS011;72811;50.844;3.228;2023-10-09T02:30:21;15.60;;;9.77;;
82992;SDS011;72811;50.844;3.228;2023-10-09T02:32:54;17.73;;;10.05;;
82992;SDS011;72811;50.844;3.228;2023-10-09T02:35:32;15.93;;;9.77;;
82992;SDS011;72811;50.844;3.228;2023-10-09T02:38:04;17.80;;;10.10;;
82992;SDS011;72811;50.844;3.228;2023-10-09T02:40:33;20.25;;;10.80;;
82992;SDS011;72811;50.844;3.228;2023-10-09T02:43:07;20.85;;;10.82;;
82992;SDS011;72811;50.844;3.228;2023-10-09T02:45:42;17.70;;;10.55;;
82992;SDS011;72811;50.844;3.228;2023-10-09T02:48:17;17.48;;;9.93;;
82992;SDS011;72811;50.844;3.228;2023-10-09T02:50:50;16.35;;;9.88;;
82992;SDS011;72811;50.844;3.228;2023-10-09T02:53:16;21.15;;;10.15;;
82992;SDS011;72811;50.844;3.228;2023-10-09T02:55:45;17.63;;;11.05;;
82992;SDS011;72811;50.844;3.228;2023-10-09T02:58:50;18.17;;;10.55;;
82992;SDS011;72811;50.844;3.228;2023-10-09T03:01:17;19.40;;;10.65;;
82992;SDS011;72811;50.844;3.228;2023-10-09T03:03:42;16.08;;;10.93;;
82992;SDS011;72811;50.844;3.228;2023-10-09T03:06:15;19.98;;;10.70;;
82992;SDS011;72811;50.844;3.228;2023-10-09T03:08:53;17.70;;;11.25;;
82992;SDS011;72811;50.844;3.228;2023-10-09T03:11:20;20.48;;;11.02;;
82992;SDS011;72811;50.844;3.228;2023-10-09T03:13:46;15.32;;;10.40;;
82992;SDS011;72811;50.844;3.228;2023-10-09T03:16:12;15.02;;;9.82;;
82992;SDS011;72811;50.844;3.228;2023-10-09T03:18:44;15.90;;;10.07;;
82992;SDS011;72811;50.844;3.228;2023-10-09T03:21:15;18.05;;;10.70;;
82992;SDS011;72811;50.844;3.228;2023-10-09T03:23:42;19.67;;;11.27;;
82992;SDS011;72811;50.844;3.228;2023-10-09T03:26:09;18.75;;;11.48;;
82992;SDS011;72811;50.844;3.228;2023-10-09T03:28:36;21.63;;;11.25;;
82992;SDS011;72811;50.844;3.228;2023-10-09T03:31:02;22.40;;;11.35;;
82992;SDS011;72811;50.844;3.228;2023-10-09T03:33:28;19.42;;;11.27;;
82992;SDS011;72811;50.844;3.228;2023-10-09T03:35:58;20.73;;;11.75;;
82992;SDS011;72811;50.844;3.228;2023-10-09T03:38:26;21.20;;;11.70;;
82992;SDS011;72811;50.844;3.228;2023-10-09T03:41:00;20.10;;;11.40;;
82992;SDS011;72811;50.844;3.228;2023-10-09T03:43:33;20.75;;;11.68;;
82992;SDS011;72811;50.844;3.228;2023-10-09T03:46:05;19.27;;;11.05;;
82992;SDS011;72811;50.844;3.228;2023-10-09T03:48:38;19.23;;;11.63;;
82992;SDS011;72811;50.844;3.228;2023-10-09T03:51:03;19.27;;;11.73;;
82992;SDS011;72811;50.844;3.228;2023-10-09T03:53:38;27.45;;;11.70;;
82992;SDS011;72811;50.844;3.228;2023-10-09T03:56:08;20.67;;;11.98;;
82992;SDS011;72811;50.844;3.228;2023-10-09T03:58:38;17.83;;;12.50;;
82992;SDS011;72811;50.844;3.228;2023-10-09T04:01:09;20.05;;;12.32;;
82992;SDS011;72811;50.844;3.228;2023-10-09T04:03:53;17.58;;;11.57;;
82992;SDS011;72811;50.844;3.228;2023-10-09T04:06:25;21.75;;;12.43;;
82992;SDS011;72811;50.844;3.228;2023-10-09T04:09:01;23.42;;;12.75;;
82992;SDS011;72811;50.844;3.228;2023-10-09T04:11:48;19.67;;;11.95;;
82992;SDS011;72811;50.844;3.228;2023-10-09T04:14:33;22.20;;;12.68;;
82992;SDS011;72811;50.844;3.228;2023-10-09T04:17:01;22.65;;;13.68;;
82992;SDS011;72811;50.844;3.228;2023-10-09T04:19:48;25.88;;;13.23;;
82992;SDS011;72811;50.844;3.228;2023-10-09T04:22:34;21.10;;;12.90;;
82992;SDS011;72811;50.844;3.228;2023-10-09T04:25:05;23.50;;;12.75;;
82992;SDS011;72811;50.844;3.228;2023-10-09T04:27:40;24.65;;;12.50;;
82992;SDS011;72811;50.844;3.228;2023-10-09T04:30:07;20.05;;;14.20;;
82992;SDS011;72811;50.844;3.228;2023-10-09T04:32:33;22.33;;;13.32;;
82992;SDS011;72811;50.844;3.228;2023-10-09T04:35:00;21.70;;;13.48;;
82992;SDS011;72811;50.844;3.228;2023-10-09T04:37:44;25.75;;;13.75;;
82992;SDS011;72811;50.844;3.228;2023-10-09T04:40:17;20.58;;;14.13;;
82992;SDS011;72811;50.844;3.228;2023-10-09T04:43:02;27.00;;;14.65;;
82992;SDS011;72811;50.844;3.228;2023-10-09T04:45:31;22.15;;;14.65;;
82992;SDS011;72811;50.844;3.228;2023-10-09T04:48:19;22.63;;;14.93;;
82992;SDS011;72811;50.844;3.228;2023-10-09T04:50:58;25.55;;;15.35;;
82992;SDS011;72811;50.844;3.228;2023-10-09T04:53:43;29.83;;;15.60;;
82992;SDS011;72811;50.844;3.228;2023-10-09T04:56:15;27.65;;;15.52;;
82992;SDS011;72811;50.844;3.228;2023-10-09T04:58:41;28.30;;;16.58;;
82992;SDS011;72811;50.844;3.228;2023-10-09T05:01:10;28.35;;;16.35;;
82992;SDS011;72811;50.844;3.228;2023-10-09T05:03:40;25.77;;;15.27;;
82992;SDS011;72811;50.844;3.228;2023-10-09T05:06:06;28.98;;;16.38;;
82992;SDS011;72811;50.844;3.228;2023-10-09T05:08:51;27.48;;;16.05;;
82992;SDS011;72811;50.844;3.228;2023-10-09T05:11:21;33.08;;;17.17;;
82992;SDS011;72811;50.844;3.228;2023-10-09T05:16:38;27.48;;;17.58;;
82992;SDS011;72811;50.844;3.228;2023-10-09T05:19:21;32.63;;;17.60;;
82992;SDS011;72811;50.844;3.228;2023-10-09T05:22:06;27.05;;;17.83;;
82992;SDS011;72811;50.844;3.228;2023-10-09T05:27:40;27.48;;;17.67;;
82992;SDS011;72811;50.844;3.228;2023-10-09T05:30:26;31.23;;;18.33;;
82992;SDS011;72811;50.844;3.228;2023-10-09T05:32:55;27.50;;;17.65;;
82992;SDS011;72811;50.844;3.228;2023-10-09T05:35:25;31.73;;;19.00;;
82992;SDS011;72811;50.844;3.228;2023-10-09T05:38:17;29.42;;;19.80;;
82992;SDS011;72811;50.844;3.228;2023-10-09T05:40:50;30.52;;;19.17;;
82992;SDS011;72811;50.844;3.228;2023-10-09T05:43:42;28.88;;;19.23;;
82992;SDS011;72811;50.844;3.228;2023-10-09T05:46:26;33.83;;;19.33;;
82992;SDS011;72811;50.844;3.228;2023-10-09T05:49:00;30.73;;;19.35;;
82992;SDS011;72811;50.844;3.228;2023-10-09T05:51:34;34.92;;;20.23;;
82992;SDS011;72811;50.844;3.228;2023-10-09T05:54:07;31.25;;;20.73;;
82992;SDS011;72811;50.844;3.228;2023-10-09T05:56:32;27.77;;;19.52;;
82992;SDS011;72811;50.844;3.228;2023-10-09T05:59:17;35.17;;;20.70;;
82992;SDS011;72811;50.844;3.228;2023-10-09T06:02:01;31.55;;;20.00;;
82992;SDS011;72811;50.844;3.228;2023-10-09T06:04:29;33.53;;;21.60;;
82992;SDS011;72811;50.844;3.228;2023-10-09T06:07:13;29.85;;;20.42;;
82992;SDS011;72811;50.844;3.228;2023-10-09T06:09:39;31.75;;;20.42;;
82992;SDS011;72811;50.844;3.228;2023-10-09T06:12:21;33.78;;;20.00;;
82992;SDS011;72811;50.844;3.228;2023-10-09T06:14:56;33.20;;;20.85;;
82992;SDS011;72811;50.844;3.228;2023-10-09T06:17:46;33.78;;;21.00;;
82992;SDS011;72811;50.844;3.228;2023-10-09T06:20:17;31.67;;;19.85;;
82992;SDS011;72811;50.844;3.228;2023-10-09T06:23:02;28.77;;;19.65;;
82992;SDS011;72811;50.844;3.228;2023-10-09T06:26:03;30.67;;;20.90;;
82992;SDS011;72811;50.844;3.228;2023-10-09T06:28:48;31.90;;;20.80;;
82992;SDS011;72811;50.844;3.228;2023-10-09T06:31:34;35.53;;;22.10;;
82992;SDS011;72811;50.844;3.228;2023-10-09T06:34:20;37.17;;;21.23;;
82992;SDS011;72811;50.844;3.228;2023-10-09T06:36:57;29.50;;;20.58;;
82992;SDS011;72811;50.844;3.228;2023-10-09T06:39:28;33.38;;;22.02;;
82992;SDS011;72811;50.844;3.228;2023-10-09T06:42:13;33.20;;;22.10;;
82992;SDS011;72811;50.844;3.228;2023-10-09T06:45:07;32.13;;;21.08;;
82992;SDS011;72811;50.844;3.228;2023-10-09T06:47:40;35.25;;;23.42;;
82992;SDS011;72811;50.844;3.228;2023-10-09T06:50:21;42.90;;;22.38;;
82992;SDS011;72811;50.844;3.228;2023-10-09T06:52:54;36.75;;;24.05;;
82992;SDS011;72811;50.844;3.228;2023-10-09T06:55:26;34.55;;;24.27;;
82992;SDS011;72811;50.844;3.228;2023-10-09T06:58:19;35.30;;;24.13;;
82992;SDS011;72811;50.844;3.228;2023-10-09T07:00:53;34.80;;;24.60;;
82992;SDS011;72811;50.844;3.228;2023-10-09T07:03:20;40.72;;;24.77;;
82992;SDS011;72811;50.844;3.228;2023-10-09T07:06:06;50.50;;;26.55;;
82992;SDS011;72811;50.844;3.228;2023-10-09T07:08:52;39.20;;;24.42;;
82992;SDS011;72811;50.844;3.228;2023-10-09T07:11:34;38.60;;;24.60;;
82992;SDS011;72811;50.844;3.228;2023-10-09T07:14:13;36.38;;;24.35;;
82992;SDS011;72811;50.844;3.228;2023-10-09T07:16:56;34.67;;;25.75;;
82992;SDS011;72811;50.844;3.228;2023-10-09T07:19:48;34.88;;;23.27;;
82992;SDS011;72811;50.844;3.228;2023-10-09T07:22:15;30.60;;;22.65;;
82992;SDS011;72811;50.844;3.228;2023-10-09T07:24:54;32.85;;;22.73;;
82992;SDS011;72811;50.844;3.228;2023-10-09T07:27:21;33.50;;;22.63;;
82992;SDS011;72811;50.844;3.228;2023-10-09T07:30:18;38.05;;;22.33;;
82992;SDS011;72811;50.844;3.228;2023-10-09T07:33:00;32.80;;;21.52;;
82992;SDS011;72811;50.844;3.228;2023-10-09T07:35:50;31.38;;;21.05;;
82992;SDS011;72811;50.844;3.228;2023-10-09T07:38:26;33.00;;;22.33;;
82992;SDS011;72811;50.844;3.228;2023-10-09T07:41:00;33.60;;;22.00;;
82992;SDS011;72811;50.844;3.228;2023-10-09T07:43:32;36.13;;;21.35;;
82992;SDS011;72811;50.844;3.228;2023-10-09T07:46:05;31.17;;;21.83;;
82992;SDS011;72811;50.844;3.228;2023-10-09T07:48:50;31.45;;;21.52;;
82992;SDS011;72811;50.844;3.228;2023-10-09T07:51:19;31.60;;;20.88;;
82992;SDS011;72811;50.844;3.228;2023-10-09T07:53:51;30.25;;;20.02;;
82992;SDS011;72811;50.844;3.228;2023-10-09T07:56:23;30.58;;;20.77;;
82992;SDS011;72811;50.844;3.228;2023-10-09T07:58:49;34.80;;;22.23;;
82992;SDS011;72811;50.844;3.228;2023-10-09T08:01:17;35.90;;;21.23;;
82992;SDS011;72811;50.844;3.228;2023-10-09T08:03:59;32.72;;;20.55;;
82992;SDS011;72811;50.844;3.228;2023-10-09T08:06:39;32.67;;;21.07;;
82992;SDS011;72811;50.844;3.228;2023-10-09T08:09:10;32.33;;;22.02;;
82992;SDS011;72811;50.844;3.228;2023-10-09T08:11:43;30.65;;;21.63;;
82992;SDS011;72811;50.844;3.228;2023-10-09T08:14:11;27.75;;;20.95;;
82992;SDS011;72811;50.844;3.228;2023-10-09T08:16:56;32.33;;;22.17;;
82992;SDS011;72811;50.844;3.228;2023-10-09T08:19:41;29.77;;;20.98;;
82992;SDS011;72811;50.844;3.228;2023-10-09T08:22:23;32.67;;;20.42;;
82992;SDS011;72811;50.844;3.228;2023-10-09T08:24:50;33.60;;;21.00;;
82992;SDS011;72811;50.844;3.228;2023-10-09T08:30:00;37.75;;;22.55;;
82992;SDS011;72811;50.844;3.228;2023-10-09T08:32:49;33.95;;;20.67;;
82992;SDS011;72811;50.844;3.228;2023-10-09T08:35:51;32.10;;;22.55;;
82992;SDS011;72811;50.844;3.228;2023-10-09T08:38:33;30.75;;;20.85;;
82992;SDS011;72811;50.844;3.228;2023-10-09T08:41:08;29.45;;;20.48;;
82992;SDS011;72811;50.844;3.228;2023-10-09T08:43:49;29.25;;;20.60;;
82992;SDS011;72811;50.844;3.228;2023-10-09T08:46:19;35.85;;;21.73;;
82992;SDS011;72811;50.844;3.228;2023-10-09T08:48:47;28.70;;;20.73;;
82992;SDS011;72811;50.844;3.228;2023-10-09T08:51:13;28.20;;;21.90;;
82992;SDS011;72811;50.844;3.228;2023-10-09T08:53:41;36.53;;;25.13;;
82992;SDS011;72811;50.844;3.228;2023-10-09T08:56:13;33.92;;;25.15;;
82992;SDS011;72811;50.844;3.228;2023-10-09T08:58:48;29.48;;;22.13;;
82992;SDS011;72811;50.844;3.228;2023-10-09T09:01:16;30.20;;;22.33;;
82992;SDS011;72811;50.844;3.228;2023-10-09T09:06:12;31.30;;;22.00;;
82992;SDS011;72811;50.844;3.228;2023-10-09T09:08:39;30.52;;;20.92;;
82992;SDS011;72811;50.844;3.228;2023-10-09T09:11:38;29.55;;;20.85;;
82992;SDS011;72811;50.844;3.228;2023-10-09T09:14:13;38.83;;;21.10;;
82992;SDS011;72811;50.844;3.228;2023-10-09T09:16:44;27.55;;;19.73;;
82992;SDS011;72811;50.844;3.228;2023-10-09T09:19:14;34.00;;;20.60;;
82992;SDS011;72811;50.844;3.228;2023-10-09T09:21:48;28.90;;;19.90;;
82992;SDS011;72811;50.844;3.228;2023-10-09T09:24:19;32.13;;;19.15;;
82992;SDS011;72811;50.844;3.228;2023-10-09T09:27:04;29.98;;;18.38;;
82992;SDS011;72811;50.844;3.228;2023-10-09T09:29:51;29.42;;;18.70;;
82992;SDS011;72811;50.844;3.228;2023-10-09T09:32:26;31.30;;;19.70;;
82992;SDS011;72811;50.844;3.228;2023-10-09T09:35:03;34.30;;;18.17;;
82992;SDS011;72811;50.844;3.228;2023-10-09T09:37:34;32.15;;;19.35;;
82992;SDS011;72811;50.844;3.228;2023-10-09T09:40:08;30.60;;;21.25;;
82992;SDS011;72811;50.844;3.228;2023-10-09T09:43:02;32.92;;;20.88;;
82992;SDS011;72811;50.844;3.228;2023-10-09T09:45:34;35.35;;;20.75;;
82992;SDS011;72811;50.844;3.228;2023-10-09T09:48:05;30.52;;;19.88;;
82992;SDS011;72811;50.844;3.228;2023-10-09T09:50:35;26.80;;;19.75;;
82992;SDS011;72811;50.844;3.228;2023-10-09T09:53:13;29.08;;;19.50;;
82992;SDS011;72811;50.844;3.228;2023-10-09T09:55:49;22.20;;;17.70;;
82992;SDS011;72811;50.844;3.228;2023-10-09T10:00:53;22.52;;;17.27;;
82992;SDS011;72811;50.844;3.228;2023-10-09T10:03:34;22.10;;;17.17;;
82992;SDS011;72811;50.844;3.228;2023-10-09T10:06:04;27.85;;;18.13;;
82992;SDS011;72811;50.844;3.228;2023-10-09T10:08:35;28.90;;;18.88;;
82992;SDS011;72811;50.844;3.228;2023-10-09T10:11:04;27.50;;;18.55;;
82992;SDS011;72811;50.844;3.228;2023-10-09T10:16:09;25.08;;;16.77;;
82992;SDS011;72811;50.844;3.228;2023-10-09T10:19:03;21.48;;;16.08;;
82992;SDS011;72811;50.844;3.228;2023-10-09T10:21:46;27.20;;;17.20;;
82992;SDS011;72811;50.844;3.228;2023-10-09T10:27:36;24.98;;;17.08;;
82992;SDS011;72811;50.844;3.228;2023-10-09T10:30:34;24.08;;;15.85;;
82992;SDS011;72811;50.844;3.228;2023-10-09T10:35:18;26.25;;;15.55;;
82992;SDS011;72811;50.844;3.228;2023-10-09T10:38:03;28.00;;;15.23;;
82992;SDS011;72811;50.844;3.228;2023-10-09T10:40:47;23.40;;;16.38;;
82992;SDS011;72811;50.844;3.228;2023-10-09T10:43:22;22.08;;;16.50;;
82992;SDS011;72811;50.844;3.228;2023-10-09T10:46:13;21.25;;;14.65;;
82992;SDS011;72811;50.844;3.228;2023-10-09T10:48:55;24.50;;;14.77;;
82992;SDS011;72811;50.844;3.228;2023-10-09T10:51:41;23.75;;;15.65;;
82992;SDS011;72811;50.844;3.228;2023-10-09T10:54:20;25.85;;;15.25;;
82992;SDS011;72811;50.844;3.228;2023-10-09T10:56:56;20.27;;;14.93;;
82992;SDS011;72811;50.844;3.228;2023-10-09T10:59:23;24.00;;;15.20;;
82992;SDS011;72811;50.844;3.228;2023-10-09T11:01:50;24.77;;;15.07;;
82992;SDS011;72811;50.844;3.228;2023-10-09T11:04:26;21.20;;;15.82;;
82992;SDS011;72811;50.844;3.228;2023-10-09T11:06:59;29.80;;;15.80;;
82992;SDS011;72811;50.844;3.228;2023-10-09T11:12:28;20.55;;;14.88;;
82992;SDS011;72811;50.844;3.228;2023-10-09T11:15:13;22.90;;;14.75;;
82992;SDS011;72811;50.844;3.228;2023-10-09T11:18:01;23.23;;;14.68;;
82992;SDS011;72811;50.844;3.228;2023-10-09T11:20:34;25.67;;;15.85;;
82992;SDS011;72811;50.844;3.228;2023-10-09T11:23:03;21.75;;;14.77;;
82992;SDS011;72811;50.844;3.228;2023-10-09T11:25:43;22.40;;;15.00;;
82992;SDS011;72811;50.844;3.228;2023-10-09T11:28:21;24.05;;;15.30;;
82992;SDS011;72811;50.844;3.228;2023-10-09T11:31:06;26.73;;;14.33;;
82992;SDS011;72811;50.844;3.228;2023-10-09T11:33:48;22.05;;;14.30;;
82992;SDS011;72811;50.844;3.228;2023-10-09T11:36:16;23.42;;;15.23;;
82992;SDS011;72811;50.844;3.228;2023-10-09T11:38:47;23.65;;;15.10;;
82992;SDS011;72811;50.844;3.228;2023-10-09T11:41:14;23.80;;;14.07;;
82992;SDS011;72811;50.844;3.228;2023-10-09T11:43:50;20.92;;;13.88;;
82992;SDS011;72811;50.844;3.228;2023-10-09T11:46:19;22.03;;;15.27;;
82992;SDS011;72811;50.844;3.228;2023-10-09T11:49:09;23.17;;;13.18;;
82992;SDS011;72811;50.844;3.228;2023-10-09T11:51:47;22.25;;;13.15;;
82992;SDS011;72811;50.844;3.228;2023-10-09T11:54:48;21.83;;;13.75;;
82992;SDS011;72811;50.844;3.228;2023-10-09T11:57:14;23.17;;;13.63;;
82992;SDS011;72811;50.844;3.228;2023-10-09T11:59:42;21.63;;;13.48;;
82992;SDS011;72811;50.844;3.228;2023-10-09T12:02:08;22.02;;;12.50;;
82992;SDS011;72811;50.844;3.228;2023-10-09T12:04:40;21.45;;;11.88;;
82992;SDS011;72811;50.844;3.228;2023-10-09T12:07:09;18.58;;;11.38;;
82992;SDS011;72811;50.844;3.228;2023-10-09T12:09:36;19.33;;;11.60;;
82992;SDS011;72811;50.844;3.228;2023-10-09T12:12:05;23.25;;;11.75;;
82992;SDS011;72811;50.844;3.228;2023-10-09T12:14:34;16.67;;;10.13;;
82992;SDS011;72811;50.844;3.228;2023-10-09T12:17:03;23.05;;;11.10;;
82992;SDS011;72811;50.844;3.228;2023-10-09T12:21:58;17.30;;;10.63;;
82992;SDS011;72811;50.844;3.228;2023-10-09T12:24:29;18.35;;;10.60;;
82992;SDS011;72811;50.844;3.228;2023-10-09T12:26:55;16.35;;;10.32;;
82992;SDS011;72811;50.844;3.228;2023-10-09T12:29:21;18.10;;;9.73;;
82992;SDS011;72811;50.844;3.228;2023-10-09T12:31:51;18.05;;;10.32;;
82992;SDS011;72811;50.844;3.228;2023-10-09T12:34:23;18.17;;;11.48;;
82992;SDS011;72811;50.844;3.228;2023-10-09T12:36:52;19.87;;;9.73;;
82992;SDS011;72811;50.844;3.228;2023-10-09T12:39:19;18.40;;;10.27;;
82992;SDS011;72811;50.844;3.228;2023-10-09T12:41:47;16.10;;;9.40;;
82992;SDS011;72811;50.844;3.228;2023-10-09T12:44:14;16.98;;;10.18;;
82992;SDS011;72811;50.844;3.228;2023-10-09T12:46:40;20.60;;;10.60;;
82992;SDS011;72811;50.844;3.228;2023-10-09T12:49:07;22.58;;;10.15;;
82992;SDS011;72811;50.844;3.228;2023-10-09T12:51:33;15.85;;;10.45;;
82992;SDS011;72811;50.844;3.228;2023-10-09T12:53:59;24.45;;;10.80;;
82992;SDS011;72811;50.844;3.228;2023-10-09T12:56:29;16.45;;;9.73;;
82992;SDS011;72811;50.844;3.228;2023-10-09T12:59:04;24.25;;;10.60;;
82992;SDS011;72811;50.844;3.228;2023-10-09T13:01:30;20.13;;;10.13;;
82992;SDS011;72811;50.844;3.228;2023-10-09T13:04:08;18.83;;;9.65;;
82992;SDS011;72811;50.844;3.228;2023-10-09T13:06:41;15.65;;;9.52;;
82992;SDS011;72811;50.844;3.228;2023-10-09T13:09:10;21.27;;;9.77;;
82992;SDS011;72811;50.844;3.228;2023-10-09T13:11:43;14.80;;;9.57;;
82992;SDS011;72811;50.844;3.228;2023-10-09T13:14:14;21.20;;;10.00;;
82992;SDS011;72811;50.844;3.228;2023-10-09T13:16:44;17.70;;;9.63;;
82992;SDS011;72811;50.844;3.228;2023-10-09T13:19:10;14.60;;;9.35;;
82992;SDS011;72811;50.844;3.228;2023-10-09T13:21:36;13.25;;;10.15;;
82992;SDS011;72811;50.844;3.228;2023-10-09T13:24:04;19.45;;;9.75;;
82992;SDS011;72811;50.844;3.228;2023-10-09T13:26:30;17.80;;;9.85;;
82992;SDS011;72811;50.844;3.228;2023-10-09T13:28:58;19.17;;;10.88;;
82992;SDS011;72811;50.844;3.228;2023-10-09T13:31:28;17.52;;;10.57;;
82992;SDS011;72811;50.844;3.228;2023-10-09T13:33:59;18.92;;;12.20;;
82992;SDS011;72811;50.844;3.228;2023-10-09T13:36:26;19.95;;;11.40;;
82992;SDS011;72811;50.844;3.228;2023-10-09T13:38:55;19.83;;;11.52;;
82992;SDS011;72811;50.844;3.228;2023-10-09T13:41:50;19.70;;;10.57;;
82992;SDS011;72811;50.844;3.228;2023-10-09T13:44:26;20.17;;;9.77;;
82992;SDS011;72811;50.844;3.228;2023-10-09T13:49:31;15.45;;;9.98;;
82992;SDS011;72811;50.844;3.228;2023-10-09T13:52:00;15.13;;;10.05;;
82992;SDS011;72811;50.844;3.228;2023-10-09T13:54:28;15.73;;;10.27;;
82992;SDS011;72811;50.844;3.228;2023-10-09T13:56:57;18.25;;;10.82;;
82992;SDS011;72811;50.844;3.228;2023-10-09T13:59:24;15.75;;;10.07;;
82992;SDS011;72811;50.844;3.228;2023-10-09T14:01:55;16.70;;;10.23;;
82992;SDS011;72811;50.844;3.228;2023-10-09T14:04:28;18.42;;;10.23;;
82992;SDS011;72811;50.844;3.228;2023-10-09T14:06:54;19.88;;;9.68;;
82992;SDS011;72811;50.844;3.228;2023-10-09T14:09:24;18.85;;;10.00;;
82992;SDS011;72811;50.844;3.228;2023-10-09T14:12:03;21.10;;;10.33;;
82992;SDS011;72811;50.844;3.228;2023-10-09T14:14:35;13.80;;;9.50;;
82992;SDS011;72811;50.844;3.228;2023-10-09T14:17:11;13.77;;;9.70;;
82992;SDS011;72811;50.844;3.228;2023-10-09T14:19:41;15.90;;;9.63;;
82992;SDS011;72811;50.844;3.228;2023-10-09T14:22:13;22.10;;;10.25;;
82992;SDS011;72811;50.844;3.228;2023-10-09T14:24:42;21.48;;;11.60;;
82992;SDS011;72811;50.844;3.228;2023-10-09T14:27:15;20.30;;;10.43;;
82992;SDS011;72811;50.844;3.228;2023-10-09T14:29:45;18.08;;;10.25;;
82992;SDS011;72811;50.844;3.228;2023-10-09T14:32:14;19.30;;;9.90;;
82992;SDS011;72811;50.844;3.228;2023-10-09T14:34:52;18.08;;;9.13;;
82992;SDS011;72811;50.844;3.228;2023-10-09T14:37:19;19.77;;;10.07;;
82992;SDS011;72811;50.844;3.228;2023-10-09T14:39:46;19.48;;;9.45;;
82992;SDS011;72811;50.844;3.228;2023-10-09T14:42:18;15.23;;;9.73;;
82992;SDS011;72811;50.844;3.228;2023-10-09T14:44:45;19.00;;;10.60;;
82992;SDS011;72811;50.844;3.228;2023-10-09T14:47:11;15.68;;;8.55;;
82992;SDS011;72811;50.844;3.228;2023-10-09T14:49:39;17.98;;;9.30;;
82992;SDS011;72811;50.844;3.228;2023-10-09T14:52:12;15.85;;;8.88;;
82992;SDS011;72811;50.844;3.228;2023-10-09T14:54:44;18.80;;;9.50;;
82992;SDS011;72811;50.844;3.228;2023-10-09T14:57:14;18.52;;;9.05;;
82992;SDS011;72811;50.844;3.228;2023-10-09T14:59:40;23.67;;;10.07;;
82992;SDS011;72811;50.844;3.228;2023-10-09T15:02:08;19.15;;;9.75;;
82992;SDS011;72811;50.844;3.228;2023-10-09T15:04:34;20.00;;;9.85;;
82992;SDS011;72811;50.844;3.228;2023-10-09T15:07:02;20.23;;;9.20;;
82992;SDS011;72811;50.844;3.228;2023-10-09T15:09:32;20.48;;;10.05;;
82992;SDS011;72811;50.844;3.228;2023-10-09T15:12:01;20.02;;;8.93;;
82992;SDS011;72811;50.844;3.228;2023-10-09T15:14:27;15.05;;;8.95;;
82992;SDS011;72811;50.844;3.228;2023-10-09T15:16:52;20.88;;;8.90;;
82992;SDS011;72811;50.844;3.228;2023-10-09T15:19:18;18.38;;;9.07;;
82992;SDS011;72811;50.844;3.228;2023-10-09T15:21:48;14.57;;;7.93;;
82992;SDS011;72811;50.844;3.228;2023-10-09T15:24:16;13.65;;;8.43;;
82992;SDS011;72811;50.844;3.228;2023-10-09T15:26:56;24.05;;;9.00;;
82992;SDS011;72811;50.844;3.228;2023-10-09T15:29:34;17.52;;;8.18;;
82992;SDS011;72811;50.844;3.228;2023-10-09T15:32:03;14.65;;;8.13;;
82992;SDS011;72811;50.844;3.228;2023-10-09T15:34:40;19.58;;;8.25;;
82992;SDS011;72811;50.844;3.228;2023-10-09T15:37:06;28.15;;;8.82;;
82992;SDS011;72811;50.844;3.228;2023-10-09T15:39:34;16.60;;;8.48;;